Time;durP1;ratioP1;P1;durP2;ratioP2;P2;SDS_P1;SDS_P2;PMS_P1;PMS_P2;Temp;Humidity;BMP_temperature;BMP_pressure;BME280_temperature;BME280_humidity;BME280_pressure;Samples;Min_cycle;Max_cycle;Signal;HPM_P1;HPM_P2
2021/07/27 00:00:11;;;;;;;;;;;16.50;99.90;;;;;;5055013;28;19929;-61
2021/07/27 00:03:00;;;;;;;;;;;16.50;99.90;;;;;;5056708;28;20054;-59
2021/07/27 00:05:50;;;;;;;;;;;16.50;99.90;;;;;;5052677;28;19929;-59
2021/07/27 00:08:52;;;;;;;;;;;16.40;99.90;;;;;;5058558;28;19931;-60
2021/07/27 00:11:42;;;;;;;;;;;16.40;99.90;;;;;;5058156;28;19928;-59
2021/07/27 00:14:31;;;;;;;;;;;16.30;99.90;;;;;;5059043;28;19924;-59
2021/07/27 00:17:20;;;;;;;;;;;16.30;99.90;;;;;;5048632;28;19933;-60
2021/07/27 00:20:10;;;;;;;;;;;16.20;99.90;;;;;;5053601;28;19941;-59
2021/07/27 00:22:58;;;;;;;;;;;16.10;99.90;;;;;;5063120;28;19933;-60
2021/07/27 00:25:48;;;;;;;;;;;16.10;99.90;;;;;;5061332;28;19970;-60
2021/07/27 00:28:38;;;;;;;;;;;16.10;99.90;;;;;;5051590;28;19948;-59
2021/07/27 00:31:52;;;;;;;;;;;16.10;99.90;;;;;;5047705;28;19958;-59
2021/07/27 00:34:41;;;;;;;;;;;16.10;99.90;;;;;;5059243;28;19929;-59
2021/07/27 00:37:32;;;;;;;;;;;16.10;99.90;;;;;;5055943;28;20442;-63
2021/07/27 00:40:20;;;;;;;;;;;16.10;99.90;;;;;;5062222;28;19928;-59
2021/07/27 00:43:11;;;;;;;;;;;16.00;99.90;;;;;;5073084;28;20367;-60
2021/07/27 00:46:01;;;;;;;;;;;16.00;99.90;;;;;;5054108;28;20380;-59
2021/07/27 00:52:03;;;;;;;;;;;15.90;99.90;;;;;;5056638;28;20279;-59
2021/07/27 00:54:52;;;;;;;;;;;15.80;99.90;;;;;;5062275;28;19925;-61
2021/07/27 00:57:40;;;;;;;;;;;15.80;99.90;;;;;;5058616;28;19982;-59
2021/07/27 01:00:29;;;;;;;;;;;15.80;99.90;;;;;;5055172;28;20023;-59
2021/07/27 01:03:19;;;;;;;;;;;15.80;99.90;;;;;;5075742;28;20264;-59
2021/07/27 01:06:08;;;;;;;;;;;15.80;99.90;;;;;;5078513;28;19932;-59
2021/07/27 01:08:57;;;;;;;;;;;15.80;99.90;;;;;;5078587;28;20292;-59
2021/07/27 01:11:46;;;;;;;;;;;15.80;99.90;;;;;;5077046;28;19925;-59
2021/07/27 01:14:35;;;;;;;;;;;15.70;99.90;;;;;;5079378;28;19952;-59
2021/07/27 01:17:24;;;;;;;;;;;15.80;99.90;;;;;;5071997;28;20133;-60
2021/07/27 01:20:22;;;;;;;;;;;15.70;99.90;;;;;;5074038;28;19936;-59
2021/07/27 01:42:07;;;;;;;;;;;15.60;99.90;;;;;;5050367;28;19925;-59
2021/07/27 01:44:56;;;;;;;;;;;15.60;99.90;;;;;;5059385;28;20421;-61
2021/07/27 01:47:45;;;;;;;;;;;15.60;99.90;;;;;;5062386;28;19936;-59
2021/07/27 01:50:34;;;;;;;;;;;15.50;99.90;;;;;;5061019;28;20094;-59
2021/07/27 01:53:33;;;;;;;;;;;15.50;99.90;;;;;;5056355;28;19925;-60
2021/07/27 01:56:25;;;;;;;;;;;15.50;99.90;;;;;;5052682;28;19932;-60
2021/07/27 01:59:13;;;;;;;;;;;15.50;99.90;;;;;;5062313;28;19925;-59
2021/07/27 02:02:03;;;;;;;;;;;15.50;99.90;;;;;;5061237;28;19944;-59
2021/07/27 02:04:52;;;;;;;;;;;15.50;99.90;;;;;;5059737;28;19942;-62
2021/07/27 02:07:45;;;;;;;;;;;15.50;99.90;;;;;;5059628;28;19924;-59
2021/07/27 02:10:34;;;;;;;;;;;15.50;99.90;;;;;;5065221;28;19924;-59
2021/07/27 02:13:49;;;;;;;;;;;15.40;99.90;;;;;;5068685;28;19931;-60
2021/07/27 02:16:42;;;;;;;;;;;15.50;99.90;;;;;;5080467;28;19924;-59
2021/07/27 02:19:30;;;;;;;;;;;15.40;99.90;;;;;;5086318;28;19924;-61
2021/07/27 02:22:21;;;;;;;;;;;15.50;99.90;;;;;;5083729;28;19928;-59
2021/07/27 02:25:10;;;;;;;;;;;15.40;99.90;;;;;;5082799;28;19924;-59
2021/07/27 02:28:00;;;;;;;;;;;15.50;99.90;;;;;;5071262;28;20045;-59
2021/07/27 02:30:52;;;;;;;;;;;15.50;99.90;;;;;;5063278;28;19932;-59
2021/07/27 02:33:42;;;;;;;;;;;15.50;99.90;;;;;;5062297;28;19924;-59
2021/07/27 02:36:30;;;;;;;;;;;15.40;99.90;;;;;;5068447;28;19940;-59
2021/07/27 02:39:19;;;;;;;;;;;15.40;99.90;;;;;;5085617;28;19928;-59
2021/07/27 02:42:07;;;;;;;;;;;15.30;99.90;;;;;;5082299;28;20831;-62
2021/07/27 02:44:56;;;;;;;;;;;15.30;99.90;;;;;;5080846;28;19925;-59
2021/07/27 02:47:44;;;;;;;;;;;15.30;99.90;;;;;;5067234;28;19990;-60
2021/07/27 02:50:47;;;;;;;;;;;15.30;99.90;;;;;;5068055;28;19925;-59
2021/07/27 02:53:35;;;;;;;;;;;15.30;99.90;;;;;;5059608;28;19929;-59
2021/07/27 02:56:24;;;;;;;;;;;15.30;99.90;;;;;;5058249;28;20371;-60
2021/07/27 02:59:12;;;;;;;;;;;15.20;99.90;;;;;;5057919;28;19932;-59
2021/07/27 03:02:01;;;;;;;;;;;15.20;99.90;;;;;;5064766;28;19990;-60
2021/07/27 03:04:50;;;;;;;;;;;15.20;99.90;;;;;;5077328;28;19928;-59
2021/07/27 03:07:49;;;;;;;;;;;15.20;99.90;;;;;;5079686;28;19924;-60
2021/07/27 03:10:37;;;;;;;;;;;15.10;99.90;;;;;;5079441;28;19928;-59
2021/07/27 03:13:26;;;;;;;;;;;15.10;99.90;;;;;;5078861;28;19950;-59
2021/07/27 03:16:16;;;;;;;;;;;15.10;99.90;;;;;;5085704;28;19970;-59
2021/07/27 03:19:05;;;;;;;;;;;15.10;99.90;;;;;;5107757;28;19935;-59
2021/07/27 03:21:53;;;;;;;;;;;15.10;99.90;;;;;;5092714;28;19928;-59
2021/07/27 03:24:43;;;;;;;;;;;15.00;99.90;;;;;;5088254;28;20348;-59
2021/07/27 03:27:32;;;;;;;;;;;15.00;99.90;;;;;;5081086;28;19997;-59
2021/07/27 03:30:21;;;;;;;;;;;15.00;99.90;;;;;;5075104;28;19976;-59
2021/07/27 03:33:10;;;;;;;;;;;15.00;99.90;;;;;;5099540;28;19924;-59
2021/07/27 03:35:59;;;;;;;;;;;15.00;99.90;;;;;;5095168;28;20268;-59
2021/07/27 03:38:49;;;;;;;;;;;15.00;99.90;;;;;;5105144;28;19924;-59
2021/07/27 03:41:39;;;;;;;;;;;15.00;99.90;;;;;;5100385;28;19928;-60
2021/07/27 03:44:27;;;;;;;;;;;15.00;99.90;;;;;;5108267;28;19924;-60
2021/07/27 03:47:16;;;;;;;;;;;14.90;99.90;;;;;;5090282;28;19988;-59
2021/07/27 03:50:05;;;;;;;;;;;14.90;99.90;;;;;;5083633;28;19924;-59
2021/07/27 03:52:54;;;;;;;;;;;14.90;99.90;;;;;;5102313;28;19923;-59
2021/07/27 03:55:42;;;;;;;;;;;15.00;99.90;;;;;;5094845;28;19938;-59
2021/07/27 03:58:36;;;;;;;;;;;14.90;99.90;;;;;;5099653;28;19924;-59
2021/07/27 04:01:29;;;;;;;;;;;14.90;99.90;;;;;;5102269;28;19926;-60
2021/07/27 04:04:20;;;;;;;;;;;14.90;99.90;;;;;;5101463;28;19929;-60
2021/07/27 04:07:11;;;;;;;;;;;14.90;99.90;;;;;;5095018;28;19970;-60
2021/07/27 04:09:59;;;;;;;;;;;14.90;99.90;;;;;;5099443;28;19919;-60
2021/07/27 04:12:48;;;;;;;;;;;14.90;99.90;;;;;;5094726;28;19912;-62
2021/07/27 04:15:46;;;;;;;;;;;14.90;99.90;;;;;;5092701;28;19983;-58
2021/07/27 04:18:35;;;;;;;;;;;14.90;99.90;;;;;;5114878;28;19912;-59
2021/07/27 04:21:23;;;;;;;;;;;15.00;99.90;;;;;;5093805;28;19924;-59
2021/07/27 04:24:12;;;;;;;;;;;15.10;99.90;;;;;;5109280;28;19977;-59
2021/07/27 04:27:01;;;;;;;;;;;15.10;99.90;;;;;;5110389;28;19912;-59
2021/07/27 04:29:50;;;;;;;;;;;15.20;99.90;;;;;;5107519;28;19912;-60
2021/07/27 04:32:42;;;;;;;;;;;15.30;99.90;;;;;;5105746;28;19923;-59
2021/07/27 04:35:32;;;;;;;;;;;15.30;99.90;;;;;;5100134;28;19912;-60
2021/07/27 04:38:21;;;;;;;;;;;15.40;99.90;;;;;;5113347;28;19942;-61
2021/07/27 04:41:11;;;;;;;;;;;15.40;99.90;;;;;;5113940;28;19915;-59
2021/07/27 04:44:01;;;;;;;;;;;15.40;99.90;;;;;;5100461;28;20011;-59
2021/07/27 04:46:50;;;;;;;;;;;15.50;99.90;;;;;;5097594;28;19916;-62
2021/07/27 04:49:40;;;;;;;;;;;15.60;99.90;;;;;;5100447;28;20263;-59
2021/07/27 04:52:30;;;;;;;;;;;15.70;99.90;;;;;;5086188;28;20045;-59
2021/07/27 04:55:21;;;;;;;;;;;15.90;99.90;;;;;;5090010;28;20019;-59
2021/07/27 04:58:10;;;;;;;;;;;16.00;99.90;;;;;;5090386;28;20410;-59
2021/07/27 05:01:02;;;;;;;;;;;16.10;99.90;;;;;;5080539;28;19957;-59
2021/07/27 05:04:17;;;;;;;;;;;16.20;99.90;;;;;;5069803;28;19932;-61
2021/07/27 05:07:07;;;;;;;;;;;16.30;99.90;;;;;;5066396;28;20013;-59
2021/07/27 05:09:55;;;;;;;;;;;16.40;99.90;;;;;;5058725;28;19969;-59
2021/07/27 05:12:44;;;;;;;;;;;16.40;99.90;;;;;;5060510;28;20032;-62
2021/07/27 05:15:33;;;;;;;;;;;16.40;99.90;;;;;;5059981;28;20052;-59
2021/07/27 05:18:21;;;;;;;;;;;16.60;99.90;;;;;;5065405;28;19929;-59
2021/07/27 05:21:34;;;;;;;;;;;16.70;99.90;;;;;;5068333;28;20244;-59
2021/07/27 05:24:25;;;;;;;;;;;16.90;99.90;;;;;;5057705;28;20421;-59
2021/07/27 05:27:13;;;;;;;;;;;17.20;99.90;;;;;;5069824;28;20276;-61
2021/07/27 05:30:02;;;;;;;;;;;17.50;99.90;;;;;;5067521;28;20368;-59
2021/07/27 05:32:51;;;;;;;;;;;17.50;99.90;;;;;;5088056;28;19924;-59
2021/07/27 05:35:40;;;;;;;;;;;17.50;99.90;;;;;;5086607;28;19954;-59
2021/07/27 05:38:31;;;;;;;;;;;17.50;99.90;;;;;;5083563;28;20577;-58
2021/07/27 05:41:22;;;;;;;;;;;17.40;99.90;;;;;;5085019;28;19939;-60
2021/07/27 05:44:10;;;;;;;;;;;17.30;99.90;;;;;;5080165;28;19946;-62
2021/07/27 05:47:00;;;;;;;;;;;17.40;99.90;;;;;;5080199;28;20306;-60
2021/07/27 05:49:50;;;;;;;;;;;17.60;99.90;;;;;;5084256;28;20318;-59
2021/07/27 05:52:39;;;;;;;;;;;17.80;99.90;;;;;;5088184;28;19924;-60
2021/07/27 05:55:27;;;;;;;;;;;17.80;99.90;;;;;;5082600;28;19934;-60
2021/07/27 05:58:17;;;;;;;;;;;18.00;99.90;;;;;;5087342;28;20048;-59
2021/07/27 06:01:31;;;;;;;;;;;18.10;99.90;;;;;;5074741;28;19962;-59
2021/07/27 06:04:20;;;;;;;;;;;18.10;99.90;;;;;;5086994;28;19935;-62
2021/07/27 06:07:14;;;;;;;;;;;18.80;99.90;;;;;;5082744;28;19924;-59
2021/07/27 06:10:02;;;;;;;;;;;19.00;99.90;;;;;;5044531;28;19998;-59
2021/07/27 06:12:51;;;;;;;;;;;19.40;99.90;;;;;;5093227;28;20066;-58
2021/07/27 06:15:41;;;;;;;;;;;19.70;99.90;;;;;;5081416;28;19973;-60
2021/07/27 06:18:30;;;;;;;;;;;19.70;99.90;;;;;;5087387;28;19970;-59
2021/07/27 06:21:24;;;;;;;;;;;20.10;99.90;;;;;;5081066;28;19992;-60
2021/07/27 06:24:12;;;;;;;;;;;20.40;99.90;;;;;;5086327;28;19942;-59
2021/07/27 06:27:01;;;;;;;;;;;20.40;99.90;;;;;;5088699;28;19958;-59
2021/07/27 06:29:50;;;;;;;;;;;20.90;99.90;;;;;;5083784;28;19949;-62
2021/07/27 06:32:39;;;;;;;;;;;21.00;99.90;;;;;;5087313;28;19988;-59
2021/07/27 06:35:29;;;;;;;;;;;21.40;99.90;;;;;;5085534;28;19932;-60
2021/07/27 06:38:17;;;;;;;;;;;22.10;99.90;;;;;;5084517;28;20458;-60
2021/07/27 06:41:06;;;;;;;;;;;22.50;99.90;;;;;;5089246;28;19925;-59
2021/07/27 06:43:54;;;;;;;;;;;22.30;99.90;;;;;;5089053;28;19924;-61
2021/07/27 06:46:43;;;;;;;;;;;23.10;99.90;;;;;;5080992;28;19924;-60
2021/07/27 06:49:33;;;;;;;;;;;22.20;99.90;;;;;;5090270;28;19924;-59
2021/07/27 06:52:22;;;;;;;;;;;22.40;99.90;;;;;;5092302;28;19989;-59
2021/07/27 06:55:12;;;;;;;;;;;23.60;99.90;;;;;;5091801;28;20379;-59
2021/07/27 06:58:01;;;;;;;;;;;23.70;99.90;;;;;;5089136;28;20317;-59
2021/07/27 07:00:49;;;;;;;;;;;25.00;99.90;;;;;;5084925;28;19946;-60
2021/07/27 07:03:38;;;;;;;;;;;24.60;99.90;;;;;;5089684;28;19954;-60
2021/07/27 07:06:28;;;;;;;;;;;25.80;99.90;;;;;;5085952;28;19936;-59
2021/07/27 07:09:17;;;;;;;;;;;25.40;99.90;;;;;;5090039;28;19932;-59
2021/07/27 07:12:07;;;;;;;;;;;26.10;99.90;;;;;;5084968;28;19951;-59
2021/07/27 07:14:57;;;;;;;;;;;26.70;99.80;;;;;;5080469;28;20005;-59
2021/07/27 07:17:45;;;;;;;;;;;27.90;99.30;;;;;;5068396;28;20467;-60
2021/07/27 07:20:33;;;;;;;;;;;28.80;97.10;;;;;;5070144;28;20041;-59
2021/07/27 07:23:23;;;;;;;;;;;29.50;95.10;;;;;;5068677;28;20374;-59
2021/07/27 07:26:12;;;;;;;;;;;27.80;95.70;;;;;;5066619;28;20038;-59
2021/07/27 07:29:01;;;;;;;;;;;28.50;95.50;;;;;;5065433;28;19924;-60
2021/07/27 07:31:49;;;;;;;;;;;29.10;94.70;;;;;;5061800;28;20031;-59
2021/07/27 07:34:38;;;;;;;;;;;28.70;94.00;;;;;;5082353;28;20014;-59
2021/07/27 07:37:27;;;;;;;;;;;29.30;93.40;;;;;;5088988;28;20167;-60
2021/07/27 07:40:18;;;;;;;;;;;30.40;92.00;;;;;;5089094;28;20237;-61
2021/07/27 07:43:06;;;;;;;;;;;32.60;84.80;;;;;;5088566;28;19932;-59
2021/07/27 07:46:00;;;;;;;;;;;30.80;85.10;;;;;;5083240;28;20384;-63
2021/07/27 07:48:49;;;;;;;;;;;32.60;85.70;;;;;;5074699;28;20233;-59
2021/07/27 07:51:44;;;;;;;;;;;35.50;74.60;;;;;;5080850;28;20382;-61
2021/07/27 07:54:34;;;;;;;;;;;34.20;70.70;;;;;;5083766;28;20365;-60
2021/07/27 07:57:26;;;;;;;;;;;31.00;80.90;;;;;;5077265;28;20245;-60
2021/07/27 08:00:22;;;;;;;;;;;31.40;81.70;;;;;;5072766;28;20054;-60
2021/07/27 08:03:13;;;;;;;;;;;34.60;73.10;;;;;;5084256;28;20031;-62
2021/07/27 08:06:02;;;;;;;;;;;30.60;79.90;;;;;;5088489;28;20393;-62
2021/07/27 08:08:51;;;;;;;;;;;30.70;82.70;;;;;;5083312;28;19935;-60
2021/07/27 08:11:41;;;;;;;;;;;29.60;84.40;;;;;;5087702;28;19924;-59
2021/07/27 08:14:32;;;;;;;;;;;29.20;86.70;;;;;;5086200;28;19933;-59
2021/07/27 08:17:21;;;;;;;;;;;30.70;85.20;;;;;;5065348;28;19933;-60
2021/07/27 08:20:10;;;;;;;;;;;31.50;79.40;;;;;;5060977;28;20078;-59
2021/07/27 08:22:59;;;;;;;;;;;28.80;86.10;;;;;;5064058;28;20399;-59
2021/07/27 08:25:48;;;;;;;;;;;30.00;86.70;;;;;;5067726;28;20467;-60
2021/07/27 08:28:36;;;;;;;;;;;28.00;88.20;;;;;;5066482;28;19928;-59
2021/07/27 08:34:41;;;;;;;;;;;28.00;89.80;;;;;;5089468;28;19924;-59
2021/07/27 08:37:30;;;;;;;;;;;27.30;92.50;;;;;;5087289;28;19925;-59
2021/07/27 08:40:21;;;;;;;;;;;26.30;94.10;;;;;;5089336;28;19924;-58
2021/07/27 08:43:10;;;;;;;;;;;26.20;94.50;;;;;;5089115;28;20401;-59
2021/07/27 08:46:01;;;;;;;;;;;26.20;94.90;;;;;;5062305;28;19928;-59
2021/07/27 08:49:14;;;;;;;;;;;27.70;93.00;;;;;;5085725;28;19931;-60
2021/07/27 08:52:05;;;;;;;;;;;28.80;91.50;;;;;;5082340;28;19928;-59
2021/07/27 08:54:54;;;;;;;;;;;28.10;92.40;;;;;;5085243;28;19932;-59
2021/07/27 08:57:45;;;;;;;;;;;27.20;94.50;;;;;;5086109;28;19924;-61
2021/07/27 09:00:34;;;;;;;;;;;27.10;93.30;;;;;;5082352;28;19991;-59
2021/07/27 09:03:25;;;;;;;;;;;28.40;91.80;;;;;;5076325;28;19955;-59
2021/07/27 09:06:14;;;;;;;;;;;26.40;93.70;;;;;;5065880;28;19947;-58
2021/07/27 09:09:05;;;;;;;;;;;25.80;96.30;;;;;;5062507;28;19940;-59
2021/07/27 09:11:54;;;;;;;;;;;26.60;95.00;;;;;;5062679;28;20357;-59
2021/07/27 09:14:43;;;;;;;;;;;27.40;94.10;;;;;;5066307;28;20044;-60
2021/07/27 09:17:32;;;;;;;;;;;27.90;93.60;;;;;;5082169;28;19985;-59
2021/07/27 09:20:28;;;;;;;;;;;30.70;88.80;;;;;;5081784;28;19969;-59
2021/07/27 09:23:18;;;;;;;;;;;30.50;87.20;;;;;;5077982;28;20002;-59
2021/07/27 09:26:12;;;;;;;;;;;27.40;91.40;;;;;;5084998;28;19979;-59
2021/07/27 09:29:03;;;;;;;;;;;26.00;95.60;;;;;;5085850;28;19924;-59
2021/07/27 09:31:53;;;;;;;;;;;26.10;95.10;;;;;;5082422;28;19966;-59
2021/07/27 09:34:41;;;;;;;;;;;25.70;96.50;;;;;;5077453;28;19928;-59
2021/07/27 09:37:30;;;;;;;;;;;25.20;96.80;;;;;;5081667;28;19928;-58
2021/07/27 09:40:19;;;;;;;;;;;25.60;97.30;;;;;;5081711;28;19928;-60
2021/07/27 09:43:08;;;;;;;;;;;26.20;96.60;;;;;;5083950;28;20466;-59
2021/07/27 09:46:01;;;;;;;;;;;26.80;95.10;;;;;;5076962;28;20000;-59
2021/07/27 09:52:03;;;;;;;;;;;26.10;94.30;;;;;;5082884;28;20016;-59
2021/07/27 09:54:54;;;;;;;;;;;26.40;96.00;;;;;;5086642;28;19924;-59
2021/07/27 09:57:42;;;;;;;;;;;25.80;95.80;;;;;;5086423;28;19935;-60
2021/07/27 10:00:42;;;;;;;;;;;25.80;96.40;;;;;;5079480;28;20014;-59
2021/07/27 10:03:34;;;;;;;;;;;25.20;97.10;;;;;;5083508;28;19924;-62
2021/07/27 10:06:25;;;;;;;;;;;24.80;98.80;;;;;;5085906;28;19932;-59
2021/07/27 10:09:22;;;;;;;;;;;24.60;99.40;;;;;;5089005;28;19999;-59
2021/07/27 10:12:12;;;;;;;;;;;24.80;99.40;;;;;;5081212;28;19924;-59
2021/07/27 10:15:09;;;;;;;;;;;24.20;99.60;;;;;;5085391;28;20363;-58
2021/07/27 10:17:59;;;;;;;;;;;24.30;99.90;;;;;;5084188;28;20304;-63
2021/07/27 10:20:48;;;;;;;;;;;24.40;99.70;;;;;;5088136;28;20049;-59
2021/07/27 10:23:36;;;;;;;;;;;24.90;99.30;;;;;;5085343;28;19924;-59
2021/07/27 10:26:26;;;;;;;;;;;25.40;99.00;;;;;;5091979;28;19924;-58
2021/07/27 10:29:15;;;;;;;;;;;25.40;98.90;;;;;;5088848;28;19931;-59
2021/07/27 10:32:14;;;;;;;;;;;25.50;97.60;;;;;;5087462;28;20299;-59
2021/07/27 10:35:24;;;;;;;;;;;25.20;99.00;;;;;;5090551;28;20376;-59
2021/07/27 10:38:13;;;;;;;;;;;25.50;99.10;;;;;;5091485;28;20017;-59
2021/07/27 10:41:12;;;;;;;;;;;26.20;97.60;;;;;;5090345;28;19990;-60
2021/07/27 10:44:04;;;;;;;;;;;27.20;96.60;;;;;;5090624;28;20279;-59
2021/07/27 10:46:53;;;;;;;;;;;27.30;95.80;;;;;;5085644;28;20007;-59
2021/07/27 10:49:41;;;;;;;;;;;26.80;94.90;;;;;;5090750;28;20436;-59
2021/07/27 10:52:33;;;;;;;;;;;25.60;96.60;;;;;;5091782;28;20027;-59
2021/07/27 10:55:26;;;;;;;;;;;25.20;97.10;;;;;;5093016;28;19942;-59
2021/07/27 10:58:16;;;;;;;;;;;25.40;97.90;;;;;;5088682;28;20379;-59
2021/07/27 11:04:26;;;;;;;;;;;26.00;95.50;;;;;;5087276;28;20016;-60
2021/07/27 11:07:15;;;;;;;;;;;26.90;94.50;;;;;;5090970;28;19939;-59
2021/07/27 11:10:09;;;;;;;;;;;27.00;93.90;;;;;;5092556;28;19943;-59
2021/07/27 11:12:58;;;;;;;;;;;27.70;93.40;;;;;;5089743;28;20016;-59
2021/07/27 11:15:49;;;;;;;;;;;27.60;93.20;;;;;;5080479;28;19932;-59
2021/07/27 11:18:41;;;;;;;;;;;26.90;93.00;;;;;;5085837;28;19954;-59
2021/07/27 11:24:42;;;;;;;;;;;27.70;92.20;;;;;;5089476;28;19974;-59
2021/07/27 11:27:33;;;;;;;;;;;28.70;91.50;;;;;;5088900;28;19935;-61
2021/07/27 11:30:23;;;;;;;;;;;28.30;91.50;;;;;;5085078;28;21129;-59
2021/07/27 11:33:12;;;;;;;;;;;28.20;91.70;;;;;;5086839;28;20349;-59
2021/07/27 11:36:01;;;;;;;;;;;29.20;89.00;;;;;;5088810;28;19924;-59
2021/07/27 11:38:49;;;;;;;;;;;28.90;87.10;;;;;;5086166;28;19936;-60
2021/07/27 11:41:38;;;;;;;;;;;28.80;85.10;;;;;;5092215;28;20276;-60
2021/07/27 11:44:29;;;;;;;;;;;29.40;85.90;;;;;;5090735;28;19928;-59
2021/07/27 11:47:17;;;;;;;;;;;28.20;87.80;;;;;;5082756;28;19935;-60
2021/07/27 11:50:06;;;;;;;;;;;27.10;90.40;;;;;;5090775;28;19924;-60
2021/07/27 11:52:59;;;;;;;;;;;26.90;90.00;;;;;;5096847;28;20261;-59
2021/07/27 11:55:47;;;;;;;;;;;27.30;90.70;;;;;;5089661;28;20003;-59
2021/07/27 11:58:36;;;;;;;;;;;27.20;89.70;;;;;;5087763;28;20359;-58
2021/07/27 12:01:36;;;;;;;;;;;27.60;89.40;;;;;;5082481;28;20313;-60
2021/07/27 12:04:25;;;;;;;;;;;27.90;89.40;;;;;;5100356;28;19924;-59
2021/07/27 12:07:17;;;;;;;;;;;27.60;88.30;;;;;;5088269;28;19924;-59
2021/07/27 12:10:06;;;;;;;;;;;27.20;88.00;;;;;;5086337;28;19924;-60
2021/07/27 12:12:54;;;;;;;;;;;26.50;90.70;;;;;;5087879;28;20041;-59
2021/07/27 12:15:46;;;;;;;;;;;27.00;90.60;;;;;;5083138;28;19924;-59
2021/07/27 12:18:36;;;;;;;;;;;27.20;89.60;;;;;;5087312;28;19924;-59
2021/07/27 12:24:36;;;;;;;;;;;26.00;91.90;;;;;;5085557;28;19924;-60
2021/07/27 12:27:25;;;;;;;;;;;25.90;92.60;;;;;;5087596;28;20142;-59
2021/07/27 12:30:13;;;;;;;;;;;26.30;92.80;;;;;;5084264;28;19924;-59
2021/07/27 12:33:02;;;;;;;;;;;26.50;92.60;;;;;;5089709;28;19966;-62
2021/07/27 12:35:52;;;;;;;;;;;26.70;90.80;;;;;;5085389;28;19943;-59
2021/07/27 12:38:41;;;;;;;;;;;26.30;91.70;;;;;;5084707;28;19928;-59
2021/07/27 12:41:29;;;;;;;;;;;26.20;91.30;;;;;;5086106;28;19939;-59
2021/07/27 12:44:18;;;;;;;;;;;26.40;90.80;;;;;;5083622;28;20013;-59
2021/07/27 12:47:06;;;;;;;;;;;27.10;90.40;;;;;;5079051;28;19932;-59
2021/07/27 12:49:55;;;;;;;;;;;27.30;90.30;;;;;;5086051;28;20316;-59
2021/07/27 12:52:45;;;;;;;;;;;27.20;90.00;;;;;;5085134;28;19924;-58
2021/07/27 12:55:34;;;;;;;;;;;27.20;89.90;;;;;;5088473;28;19967;-59
2021/07/27 12:58:22;;;;;;;;;;;27.10;90.30;;;;;;5088346;28;20002;-60
2021/07/27 13:04:23;;;;;;;;;;;26.80;90.20;;;;;;5089596;28;19924;-60
2021/07/27 13:07:12;;;;;;;;;;;26.60;89.30;;;;;;5090639;28;19932;-59
2021/07/27 13:10:02;;;;;;;;;;;26.80;90.10;;;;;;5082374;28;19942;-59
2021/07/27 13:12:51;;;;;;;;;;;27.00;90.00;;;;;;5088230;28;19958;-59
2021/07/27 13:15:40;;;;;;;;;;;27.20;89.20;;;;;;5081054;28;20091;-59
2021/07/27 13:18:29;;;;;;;;;;;27.50;88.80;;;;;;5087811;28;20287;-59
2021/07/27 13:24:32;;;;;;;;;;;27.50;87.50;;;;;;5089308;28;19932;-59
2021/07/27 13:27:22;;;;;;;;;;;26.90;88.40;;;;;;5082106;28;20336;-60
2021/07/27 13:30:15;;;;;;;;;;;27.10;88.80;;;;;;5083459;28;19940;-60
2021/07/27 13:33:05;;;;;;;;;;;27.10;89.00;;;;;;5084937;28;19935;-59
2021/07/27 13:35:54;;;;;;;;;;;27.10;88.20;;;;;;5090322;28;19925;-59
2021/07/27 13:38:42;;;;;;;;;;;27.20;89.00;;;;;;5084897;28;20014;-59
2021/07/27 13:41:31;;;;;;;;;;;26.60;88.50;;;;;;5088446;28;20352;-62
2021/07/27 13:44:21;;;;;;;;;;;26.20;89.40;;;;;;5084699;28;19924;-60
2021/07/27 13:47:09;;;;;;;;;;;25.90;90.50;;;;;;5080145;28;20340;-60
2021/07/27 13:50:00;;;;;;;;;;;26.10;90.70;;;;;;5085640;28;19951;-59
2021/07/27 13:52:48;;;;;;;;;;;26.70;90.40;;;;;;5086039;28;19939;-60
2021/07/27 13:55:37;;;;;;;;;;;26.80;90.20;;;;;;5086483;28;19925;-59
2021/07/27 13:58:26;;;;;;;;;;;27.30;89.10;;;;;;5080153;28;20253;-58
2021/07/27 14:01:18;;;;;;;;;;;27.40;87.00;;;;;;5080081;28;19924;-59
2021/07/27 14:04:07;;;;;;;;;;;27.30;87.10;;;;;;5089690;28;19928;-59
2021/07/27 14:06:55;;;;;;;;;;;27.00;88.80;;;;;;5090718;28;20295;-59
2021/07/27 14:09:43;;;;;;;;;;;26.90;89.60;;;;;;5083724;28;19931;-59
2021/07/27 14:12:32;;;;;;;;;;;26.90;88.60;;;;;;5081739;28;20405;-59
2021/07/27 14:15:22;;;;;;;;;;;26.90;88.00;;;;;;5081609;28;19924;-59
2021/07/27 14:18:12;;;;;;;;;;;26.80;86.40;;;;;;5085448;28;19928;-59
2021/07/27 14:21:01;;;;;;;;;;;27.00;86.90;;;;;;5088437;28;19924;-60
2021/07/27 14:23:50;;;;;;;;;;;27.20;86.50;;;;;;5085763;28;19932;-59
2021/07/27 14:26:39;;;;;;;;;;;27.20;84.30;;;;;;5100924;28;19924;-60
2021/07/27 14:29:28;;;;;;;;;;;27.40;84.40;;;;;;5106686;28;19935;-59
2021/07/27 14:32:17;;;;;;;;;;;27.40;84.30;;;;;;5103775;28;19924;-59
2021/07/27 14:35:08;;;;;;;;;;;26.90;84.00;;;;;;5091985;28;19974;-60
2021/07/27 14:37:58;;;;;;;;;;;27.00;83.60;;;;;;5096633;28;20486;-60
2021/07/27 14:40:46;;;;;;;;;;;26.90;84.20;;;;;;5077492;28;19925;-60
2021/07/27 14:43:35;;;;;;;;;;;27.00;85.20;;;;;;5081844;28;19949;-60
2021/07/27 14:46:23;;;;;;;;;;;27.10;83.90;;;;;;5071622;28;19932;-60
2021/07/27 14:49:12;;;;;;;;;;;27.30;84.50;;;;;;5077792;28;19950;-59
2021/07/27 14:52:02;;;;;;;;;;;27.20;83.90;;;;;;5077630;28;19924;-59
2021/07/27 14:54:51;;;;;;;;;;;27.00;83.90;;;;;;5083711;28;19969;-59
2021/07/27 14:58:04;;;;;;;;;;;26.80;85.40;;;;;;5083002;28;20379;-59
2021/07/27 15:00:52;;;;;;;;;;;27.00;85.70;;;;;;5078324;28;19928;-61
2021/07/27 15:03:40;;;;;;;;;;;27.00;84.40;;;;;;5087550;28;20292;-59
2021/07/27 15:06:29;;;;;;;;;;;26.90;85.00;;;;;;5084537;28;19931;-59
2021/07/27 15:09:19;;;;;;;;;;;26.30;86.20;;;;;;5092390;28;20011;-58
2021/07/27 15:12:08;;;;;;;;;;;26.10;87.80;;;;;;5090410;28;19924;-59
2021/07/27 15:14:56;;;;;;;;;;;26.10;86.80;;;;;;5097322;28;19940;-60
2021/07/27 15:17:45;;;;;;;;;;;26.30;88.40;;;;;;5090455;28;20464;-59
2021/07/27 15:23:47;;;;;;;;;;;26.20;90.00;;;;;;5083587;28;20301;-59
2021/07/27 15:26:38;;;;;;;;;;;25.70;90.00;;;;;;5085054;28;19928;-59
2021/07/27 15:29:27;;;;;;;;;;;25.60;90.60;;;;;;5085792;28;19924;-59
2021/07/27 15:32:15;;;;;;;;;;;25.70;90.60;;;;;;5083102;28;19947;-59
2021/07/27 15:35:04;;;;;;;;;;;25.90;88.90;;;;;;5090280;28;19931;-58
2021/07/27 15:37:52;;;;;;;;;;;26.10;87.40;;;;;;5086938;28;19928;-59
2021/07/27 15:40:41;;;;;;;;;;;26.20;87.50;;;;;;5090897;28;19924;-59
2021/07/27 15:43:31;;;;;;;;;;;26.20;88.10;;;;;;5089882;28;19924;-59
2021/07/27 15:46:19;;;;;;;;;;;26.00;88.60;;;;;;5085262;28;19924;-60
2021/07/27 15:49:08;;;;;;;;;;;26.20;88.40;;;;;;5090862;28;20025;-59
2021/07/27 15:51:57;;;;;;;;;;;26.20;88.70;;;;;;5090686;28;19924;-60
2021/07/27 15:54:45;;;;;;;;;;;26.30;88.40;;;;;;5091956;28;19928;-59
2021/07/27 15:58:02;;;;;;;;;;;26.30;88.50;;;;;;5091741;28;19932;-60
2021/07/27 16:00:52;;;;;;;;;;;26.40;89.00;;;;;;5082707;28;19924;-59
2021/07/27 16:03:41;;;;;;;;;;;26.30;88.60;;;;;;5102837;28;19932;-61
2021/07/27 16:06:30;;;;;;;;;;;26.00;88.50;;;;;;5102024;28;19928;-60
2021/07/27 16:09:20;;;;;;;;;;;26.20;89.00;;;;;;5103883;28;19981;-60
2021/07/27 16:12:08;;;;;;;;;;;26.00;89.20;;;;;;5104756;28;19924;-60
2021/07/27 16:14:57;;;;;;;;;;;26.00;89.70;;;;;;5102701;28;19928;-60
2021/07/27 16:17:49;;;;;;;;;;;26.00;89.40;;;;;;5099136;28;19928;-62
2021/07/27 16:20:37;;;;;;;;;;;26.10;89.60;;;;;;5103685;28;19932;-60
2021/07/27 16:23:26;;;;;;;;;;;26.10;89.90;;;;;;5105819;28;19925;-59
2021/07/27 16:26:16;;;;;;;;;;;26.20;89.10;;;;;;5102328;28;19924;-60
2021/07/27 16:29:05;;;;;;;;;;;26.00;90.00;;;;;;5100308;28;19935;-62
2021/07/27 16:31:54;;;;;;;;;;;26.10;90.20;;;;;;5102244;28;19928;-60
2021/07/27 16:34:44;;;;;;;;;;;26.20;90.10;;;;;;5102607;28;19967;-59
2021/07/27 16:37:32;;;;;;;;;;;26.20;89.90;;;;;;5104833;28;19974;-60
2021/07/27 16:40:21;;;;;;;;;;;26.20;90.00;;;;;;5106989;28;19946;-60
2021/07/27 16:43:09;;;;;;;;;;;26.00;90.30;;;;;;5108105;28;19963;-60
2021/07/27 16:46:01;;;;;;;;;;;26.00;90.50;;;;;;5106349;28;19923;-59
2021/07/27 16:48:51;;;;;;;;;;;25.90;90.60;;;;;;5104773;28;19924;-59
2021/07/27 16:51:41;;;;;;;;;;;25.90;90.70;;;;;;5107506;28;19965;-59
2021/07/27 16:54:30;;;;;;;;;;;25.90;90.40;;;;;;5105095;28;19930;-61
2021/07/27 16:57:18;;;;;;;;;;;25.90;90.60;;;;;;5087881;28;19938;-59
2021/07/27 17:00:09;;;;;;;;;;;25.90;90.70;;;;;;5088413;28;19928;-59
2021/07/27 17:02:58;;;;;;;;;;;25.80;91.00;;;;;;5091335;28;20278;-59
2021/07/27 17:05:47;;;;;;;;;;;25.80;91.00;;;;;;5087419;28;19935;-60
2021/07/27 17:08:37;;;;;;;;;;;25.80;91.10;;;;;;5091100;28;19970;-59
2021/07/27 17:11:25;;;;;;;;;;;25.80;90.90;;;;;;5090172;28;19924;-59
2021/07/27 17:14:14;;;;;;;;;;;25.80;90.90;;;;;;5083941;28;19928;-59
2021/07/27 17:17:03;;;;;;;;;;;25.70;91.60;;;;;;5085833;28;20011;-59